createdAt,value
2018-03-20T00:00:18.833Z,-2.20
2018-03-20T00:02:54.226Z,-2.30
2018-03-20T00:05:28.748Z,-2.00
2018-03-20T00:08:03.291Z,-2.00
2018-03-20T00:10:37.892Z,-2.00
2018-03-20T00:13:12.116Z,-2.00
2018-03-20T00:15:46.115Z,-2.00
2018-03-20T00:18:20.647Z,-1.90
2018-03-20T00:20:54.445Z,-1.90
2018-03-20T00:23:29.718Z,-2.00
2018-03-20T00:26:03.844Z,-2.00
2018-03-20T00:28:38.647Z,-1.90
2018-03-20T00:31:12.600Z,-2.00
2018-03-20T00:33:46.365Z,-2.00
2018-03-20T00:36:20.944Z,-2.00
2018-03-20T00:38:55.687Z,-2.00
2018-03-20T00:41:30.844Z,-1.90
2018-03-20T00:44:04.553Z,-1.90
2018-03-20T00:46:39.180Z,-1.80
2018-03-20T00:49:13.981Z,-1.90
2018-03-20T00:51:47.790Z,-1.90
2018-03-20T00:54:23.023Z,-2.00
2018-03-20T00:56:57.036Z,-2.10
2018-03-20T00:59:31.293Z,-2.10
2018-03-20T01:02:05.781Z,-2.10
2018-03-20T01:04:39.575Z,-2.10
2018-03-20T01:07:13.571Z,-2.20
2018-03-20T01:09:47.999Z,-2.20
2018-03-20T01:12:21.824Z,-2.20
2018-03-20T01:14:55.711Z,-2.20
2018-03-20T01:17:29.925Z,-2.30
2018-03-20T01:20:04.710Z,-2.40
2018-03-20T01:22:38.501Z,-2.40
2018-03-20T01:25:13.212Z,-2.40
2018-03-20T01:27:47.826Z,-2.40
2018-03-20T01:30:22.251Z,-2.30
2018-03-20T01:32:56.960Z,-2.30
2018-03-20T01:35:31.277Z,-2.30
2018-03-20T01:38:05.333Z,-2.30
2018-03-20T01:40:39.152Z,-2.40
2018-03-20T01:43:13.677Z,-2.50
2018-03-20T01:45:47.510Z,-2.50
2018-03-20T01:48:22.024Z,-2.50
2018-03-20T01:50:56.658Z,-2.60
2018-03-20T01:53:31.992Z,-2.60
2018-03-20T01:56:06.606Z,-2.70
2018-03-20T01:58:41.959Z,-2.70
2018-03-20T02:01:16.704Z,-2.80
2018-03-20T02:03:50.903Z,-2.80
2018-03-20T02:06:25.422Z,-3.10
2018-03-20T02:08:59.923Z,-3.20
2018-03-20T02:11:34.760Z,-3.10
2018-03-20T02:14:09.717Z,-3.20
2018-03-20T02:16:43.839Z,-3.20
2018-03-20T02:19:17.919Z,-3.20
2018-03-20T02:21:52.435Z,-3.40
2018-03-20T02:24:26.208Z,-3.40
2018-03-20T02:27:00.613Z,-3.50
2018-03-20T02:29:35.017Z,-3.70
2018-03-20T02:32:08.998Z,-3.70
2018-03-20T02:34:42.728Z,-3.80
2018-03-20T02:37:16.431Z,-3.80
2018-03-20T02:39:50.610Z,-3.90
2018-03-20T02:42:24.312Z,-3.90
2018-03-20T02:44:59.042Z,-4.00
2018-03-20T02:47:33.051Z,-4.00
2018-03-20T02:50:06.658Z,-3.90
2018-03-20T02:52:40.572Z,-3.90
2018-03-20T02:55:15.081Z,-3.70
2018-03-20T02:57:49.622Z,-3.60
2018-03-20T03:00:24.129Z,-3.60
2018-03-20T03:02:58.877Z,-3.50
2018-03-20T03:05:32.953Z,-3.50
2018-03-20T03:08:06.859Z,-3.40
2018-03-20T03:10:41.591Z,-3.20
2018-03-20T03:13:16.431Z,-3.10
2018-03-20T03:15:51.447Z,-3.00
2018-03-20T03:18:25.337Z,-3.10
2018-03-20T03:20:59.143Z,-2.90
2018-03-20T03:23:33.663Z,-3.00
2018-03-20T03:26:08.695Z,-2.90
2018-03-20T03:28:43.244Z,-2.80
2018-03-20T03:31:17.205Z,-2.80
2018-03-20T03:33:51.162Z,-2.70
2018-03-20T03:36:25.572Z,-2.80
2018-03-20T03:38:59.347Z,-2.80
2018-03-20T03:41:33.153Z,-2.90
2018-03-20T03:44:07.216Z,-2.90
2018-03-20T03:46:41.359Z,-2.80
2018-03-20T03:49:15.444Z,-2.80
2018-03-20T03:51:49.228Z,-2.80
2018-03-20T03:54:23.862Z,-2.70
2018-03-20T03:56:57.895Z,-2.70
2018-03-20T03:59:32.609Z,-2.70
2018-03-20T04:02:07.016Z,-2.60
2018-03-20T04:04:41.036Z,-2.70
2018-03-20T04:07:15.654Z,-2.70
2018-03-20T04:09:50.295Z,-2.70
2018-03-20T04:12:24.380Z,-2.70
2018-03-20T04:14:58.827Z,-2.80
2018-03-20T04:17:32.920Z,-2.80
2018-03-20T04:20:06.775Z,-2.80
2018-03-20T04:22:41.508Z,-2.70
2018-03-20T04:25:16.212Z,-2.60
2018-03-20T04:27:50.285Z,-2.70
2018-03-20T04:30:24.599Z,-2.70
2018-03-20T04:32:58.507Z,-2.70
2018-03-20T04:35:33.556Z,-2.60
2018-03-20T04:38:07.535Z,-2.60
2018-03-20T04:40:41.452Z,-2.50
2018-03-20T04:43:15.772Z,-2.40
2018-03-20T04:45:50.391Z,-2.60
2018-03-20T04:48:25.446Z,-2.60
2018-03-20T04:50:59.948Z,-2.60
2018-03-20T04:53:34.813Z,-2.50
2018-03-20T04:56:08.427Z,-2.50
2018-03-20T04:58:42.292Z,-2.40
2018-03-20T05:01:16.002Z,-2.40
2018-03-20T05:03:50.602Z,-2.20
2018-03-20T05:06:24.116Z,-2.20
2018-03-20T05:08:57.899Z,-2.20
2018-03-20T05:11:32.133Z,-2.30
2018-03-20T05:14:06.836Z,-2.40
2018-03-20T05:16:41.599Z,-2.30
2018-03-20T05:19:31.555Z,-2.40
2018-03-20T05:22:11.524Z,-2.40
2018-03-20T05:24:45.933Z,-2.50
2018-03-20T05:27:19.840Z,-2.50
2018-03-20T05:29:54.988Z,-2.40
2018-03-20T05:32:29.192Z,-2.40
2018-03-20T05:35:03.555Z,-2.50
2018-03-20T05:37:38.143Z,-2.60
2018-03-20T05:40:12.154Z,-2.70
2018-03-20T05:42:47.583Z,-2.70
2018-03-20T05:45:21.563Z,-2.80
2018-03-20T06:01:19.334Z,-3.20
2018-03-20T06:03:53.872Z,-3.30
2018-03-20T06:06:28.287Z,-3.30
2018-03-20T06:09:02.720Z,-3.30
2018-03-20T06:11:36.404Z,-3.30
2018-03-20T06:14:10.201Z,-3.20
2018-03-20T06:16:45.151Z,-3.20
2018-03-20T06:19:19.130Z,-3.20
2018-03-20T06:21:54.180Z,-3.20
2018-03-20T06:24:28.414Z,-3.20
2018-03-20T06:27:05.079Z,-3.10
2018-03-20T06:29:39.692Z,-3.10
2018-03-20T06:32:14.829Z,-2.90
2018-03-20T06:34:48.841Z,-2.80
2018-03-20T06:37:25.101Z,-2.70
2018-03-20T06:39:59.008Z,-2.70
2018-03-20T06:42:33.997Z,-2.70
2018-03-20T06:45:08.585Z,-2.70
2018-03-20T06:47:43.602Z,-2.70
2018-03-20T06:50:18.842Z,-2.60
2018-03-20T06:52:53.507Z,-2.60
2018-03-20T06:55:28.190Z,-2.60
2018-03-20T06:58:02.932Z,-2.60
2018-03-20T07:00:37.862Z,-2.50
2018-03-20T07:03:13.290Z,-2.40
2018-03-20T07:05:49.614Z,-2.40
2018-03-20T07:08:24.405Z,-2.40
2018-03-20T07:10:58.436Z,-2.30
2018-03-20T07:13:33.338Z,-2.30
2018-03-20T07:16:08.252Z,-2.20
2018-03-20T07:18:43.896Z,-2.10
2018-03-20T07:21:18.003Z,-2.20
2018-03-20T07:23:53.828Z,-2.10
2018-03-20T07:26:27.664Z,-2.00
2018-03-20T07:29:02.036Z,-1.70
2018-03-20T07:31:36.152Z,-1.70
2018-03-20T07:34:09.935Z,-1.70
2018-03-20T07:36:44.631Z,-1.70
2018-03-20T07:39:18.287Z,-1.70
2018-03-20T07:41:52.127Z,-1.60
2018-03-20T07:44:25.699Z,-1.50
2018-03-20T07:46:59.991Z,-1.20
2018-03-20T07:49:34.280Z,-1.10
2018-03-20T07:52:09.496Z,-0.90
2018-03-20T07:54:43.203Z,-0.90
2018-03-20T07:57:16.880Z,-0.70
2018-03-20T07:59:50.461Z,-0.40
2018-03-20T08:02:24.024Z,-0.40
2018-03-20T08:04:58.340Z,0.00
2018-03-20T08:07:31.880Z,0.00
2018-03-20T08:10:05.470Z,0.50
2018-03-20T08:12:39.775Z,0.60
2018-03-20T08:15:14.087Z,1.00
2018-03-20T08:17:48.439Z,1.20
2018-03-20T08:20:22.443Z,1.20
2018-03-20T08:22:56.041Z,1.40
2018-03-20T08:25:29.787Z,1.30
2018-03-20T08:28:04.317Z,1.70
2018-03-20T08:30:38.026Z,1.60
2018-03-20T08:33:11.899Z,2.20
2018-03-20T08:35:46.396Z,2.20
2018-03-20T08:38:19.908Z,2.20
2018-03-20T08:40:53.524Z,2.10
2018-03-20T08:43:27.183Z,1.90
2018-03-20T08:46:00.928Z,1.10
2018-03-20T08:48:34.707Z,0.80
2018-03-20T08:51:09.292Z,0.90
2018-03-20T08:53:42.867Z,0.90
2018-03-20T08:56:17.291Z,1.60
2018-03-20T08:58:52.862Z,1.10
2018-03-20T09:01:27.175Z,1.60
2018-03-20T09:04:01.680Z,2.20
2018-03-20T09:06:35.412Z,2.20
2018-03-20T09:09:09.891Z,4.10
2018-03-20T09:11:43.520Z,4.00
2018-03-20T09:14:17.955Z,4.20
2018-03-20T09:16:51.587Z,4.20
2018-03-20T09:19:25.317Z,3.80
2018-03-20T09:21:59.087Z,3.30
2018-03-20T09:24:32.772Z,2.80
2018-03-20T09:27:06.473Z,2.90
2018-03-20T09:29:41.033Z,3.60
2018-03-20T09:32:14.559Z,3.60
2018-03-20T09:34:48.362Z,4.00
2018-03-20T09:37:21.811Z,3.70
2018-03-20T09:39:56.200Z,3.50
2018-03-20T09:42:30.652Z,3.60
2018-03-20T09:45:04.481Z,3.60
2018-03-20T09:47:38.217Z,4.00
2018-03-20T09:50:12.188Z,3.90
2018-03-20T09:52:45.658Z,3.40
2018-03-20T09:55:19.385Z,3.10
2018-03-20T09:57:53.891Z,2.40
2018-03-20T10:00:28.267Z,2.30
2018-03-20T10:03:02.112Z,2.30
2018-03-20T10:05:35.917Z,2.90
2018-03-20T10:08:09.634Z,2.80
2018-03-20T10:10:43.259Z,2.80
2018-03-20T10:13:17.025Z,2.80
2018-03-20T10:15:51.975Z,2.70
2018-03-20T10:18:25.563Z,2.70
2018-03-20T10:21:00.096Z,3.60
2018-03-20T10:23:33.763Z,3.60
2018-03-20T10:26:07.491Z,3.20
2018-03-20T10:28:41.803Z,3.30
2018-03-20T10:31:15.367Z,3.30
2018-03-20T10:33:49.676Z,3.60
2018-03-20T10:36:24.133Z,3.50
2018-03-20T10:38:57.692Z,3.50
2018-03-20T10:41:31.242Z,3.90
2018-03-20T10:44:04.819Z,3.30
2018-03-20T10:46:38.592Z,4.00
2018-03-20T10:49:12.206Z,4.90
2018-03-20T10:51:45.926Z,4.00
2018-03-20T10:54:19.568Z,4.30
2018-03-20T10:56:53.471Z,4.30
2018-03-20T10:59:27.955Z,4.20
2018-03-20T11:02:07.390Z,4.20
2018-03-20T11:04:41.826Z,4.10
2018-03-20T11:07:15.468Z,4.10
2018-03-20T11:09:49.163Z,4.00
2018-03-20T11:12:22.902Z,4.50
2018-03-20T11:14:56.667Z,4.70
2018-03-20T11:17:31.250Z,4.10
2018-03-20T11:20:05.653Z,4.70
2018-03-20T11:22:39.146Z,4.70
2018-03-20T11:25:12.772Z,4.90
2018-03-20T11:27:47.359Z,5.30
2018-03-20T11:30:20.968Z,5.20
2018-03-20T11:32:54.771Z,4.90
2018-03-20T11:35:28.392Z,5.30
2018-03-20T11:38:02.036Z,5.30
2018-03-20T11:40:37.388Z,4.00
2018-03-20T11:43:11.597Z,4.00
2018-03-20T11:45:45.827Z,4.80
2018-03-20T11:48:19.827Z,5.70
2018-03-20T11:50:53.944Z,6.70
2018-03-20T11:53:27.755Z,7.30
2018-03-20T11:56:01.438Z,7.90
2018-03-20T11:58:36.063Z,9.00
2018-03-20T12:01:09.939Z,8.90
2018-03-20T12:03:45.636Z,8.10
2018-03-20T12:06:20.388Z,6.80
2018-03-20T12:09:06.013Z,6.70
2018-03-20T12:11:40.813Z,6.40
2018-03-20T12:14:16.061Z,6.20
2018-03-20T12:16:50.769Z,6.10
2018-03-20T12:19:25.764Z,6.00
2018-03-20T12:22:00.579Z,5.90
2018-03-20T12:24:35.503Z,5.00
2018-03-20T12:27:09.621Z,5.00
2018-03-20T12:29:44.018Z,5.00
2018-03-20T12:32:17.746Z,5.00
2018-03-20T12:34:51.709Z,4.90
2018-03-20T12:37:26.688Z,4.60
2018-03-20T12:40:01.064Z,4.30
2018-03-20T12:42:34.817Z,4.20
2018-03-20T12:45:08.603Z,3.80
2018-03-20T12:47:42.739Z,3.40
2018-03-20T12:50:17.548Z,2.90
2018-03-20T12:52:52.969Z,2.90
2018-03-20T12:55:27.512Z,2.40
2018-03-20T12:58:01.174Z,2.40
2018-03-20T13:00:34.851Z,2.40
2018-03-20T13:03:08.457Z,2.50
2018-03-20T13:05:43.099Z,2.90
2018-03-20T13:08:18.577Z,2.70
2018-03-20T13:10:52.867Z,2.70
2018-03-20T13:13:26.539Z,2.50
2018-03-20T13:16:02.027Z,2.30
2018-03-20T13:18:36.884Z,2.40
2018-03-20T13:21:11.250Z,2.40
2018-03-20T13:23:45.628Z,2.40
2018-03-20T13:26:20.526Z,2.40
2018-03-20T13:28:54.550Z,2.30
2018-03-20T13:31:28.813Z,2.40
2018-03-20T13:34:03.194Z,2.10
2018-03-20T13:36:37.619Z,2.10
2018-03-20T13:39:13.458Z,2.40
2018-03-20T13:41:47.612Z,2.30
2018-03-20T13:44:21.878Z,2.30
2018-03-20T13:46:56.711Z,2.00
2018-03-20T13:49:31.238Z,1.90
2018-03-20T13:52:05.140Z,2.10
2018-03-20T13:54:39.870Z,1.50
2018-03-20T13:57:16.229Z,1.50
2018-03-20T13:59:52.355Z,1.60
2018-03-20T14:02:27.529Z,1.70
2018-03-20T14:05:02.784Z,2.00
2018-03-20T14:07:37.483Z,2.00
2018-03-20T14:10:13.550Z,1.70
2018-03-20T14:12:48.169Z,1.50
2018-03-20T14:15:21.879Z,1.50
2018-03-20T14:17:57.320Z,1.30
2018-03-20T14:20:32.083Z,1.30
2018-03-20T14:23:06.681Z,1.00
2018-03-20T14:25:42.337Z,0.70
2018-03-20T14:28:16.416Z,0.70
2018-03-20T14:30:50.128Z,0.80
2018-03-20T14:33:25.040Z,0.90
2018-03-20T14:35:59.675Z,1.00
2018-03-20T14:38:35.567Z,1.10
2018-03-20T14:41:10.470Z,1.10
2018-03-20T14:43:46.228Z,1.00
2018-03-20T14:46:19.919Z,1.00
2018-03-20T14:48:54.767Z,0.70
2018-03-20T14:51:28.754Z,0.50
2018-03-20T14:54:03.312Z,0.50
2018-03-20T14:56:37.729Z,0.70
2018-03-20T14:59:12.089Z,0.60
2018-03-20T15:01:46.997Z,0.80
2018-03-20T15:04:21.018Z,0.80
2018-03-20T15:06:55.778Z,1.00
2018-03-20T15:09:30.625Z,1.00
2018-03-20T15:12:05.268Z,0.90
2018-03-20T15:14:39.036Z,0.80
2018-03-20T15:17:14.242Z,0.70
2018-03-20T15:19:48.810Z,0.80
2018-03-20T15:22:23.729Z,0.80
2018-03-20T15:24:57.944Z,1.00
2018-03-20T15:27:33.570Z,0.90
2018-03-20T15:30:07.536Z,0.90
2018-03-20T15:32:42.232Z,0.70
2018-03-20T15:35:18.051Z,0.70
2018-03-20T15:37:52.412Z,0.70
2018-03-20T15:40:26.455Z,0.60
2018-03-20T15:43:00.524Z,0.60
2018-03-20T15:45:35.143Z,0.70
2018-03-20T15:48:09.683Z,1.00
2018-03-20T15:50:44.615Z,1.10
2018-03-20T15:53:18.601Z,1.00
2018-03-20T15:55:52.622Z,1.20
2018-03-20T15:58:26.821Z,1.10
2018-03-20T16:01:00.941Z,0.90
2018-03-20T16:03:36.083Z,1.00
2018-03-20T16:06:10.079Z,1.00
2018-03-20T16:08:45.648Z,1.20
2018-03-20T16:11:19.243Z,1.20
2018-03-20T16:13:54.656Z,1.00
2018-03-20T16:16:29.395Z,1.00
2018-03-20T16:19:05.061Z,1.00
2018-03-20T16:21:40.225Z,1.20
2018-03-20T16:24:14.597Z,1.20
2018-03-20T16:26:49.124Z,1.10
2018-03-20T16:29:23.968Z,1.10
2018-03-20T16:31:58.673Z,0.90
2018-03-20T16:34:33.706Z,0.90
2018-03-20T16:37:08.326Z,0.80
2018-03-20T16:39:42.517Z,0.80
2018-03-20T16:42:17.588Z,0.80
2018-03-20T16:44:51.900Z,0.80
2018-03-20T16:47:26.524Z,0.80
2018-03-20T16:50:00.432Z,0.70
2018-03-20T16:52:34.955Z,0.70
2018-03-20T16:55:08.939Z,0.70
2018-03-20T16:57:45.423Z,0.70
2018-03-20T17:00:20.354Z,0.60
2018-03-20T17:02:55.811Z,0.50
2018-03-20T17:05:30.674Z,0.60
2018-03-20T17:08:06.038Z,0.60
2018-03-20T17:10:40.999Z,0.60
2018-03-20T17:13:15.742Z,0.50
2018-03-20T17:15:49.627Z,0.50
2018-03-20T17:18:24.330Z,0.50
2018-03-20T17:20:58.774Z,0.50
2018-03-20T17:23:33.486Z,0.40
2018-03-20T17:26:08.337Z,0.50
2018-03-20T17:28:43.150Z,0.50
2018-03-20T17:31:17.758Z,0.60
2018-03-20T17:33:51.492Z,0.60
2018-03-20T17:36:26.749Z,0.70
2018-03-20T17:39:01.151Z,0.60
2018-03-20T17:41:37.529Z,0.50
2018-03-20T17:44:11.709Z,0.60
2018-03-20T17:46:45.552Z,0.60
2018-03-20T17:49:19.551Z,0.60
2018-03-20T17:51:55.389Z,0.70
2018-03-20T17:54:29.995Z,0.70
2018-03-20T17:57:05.679Z,0.70
2018-03-20T17:59:39.675Z,0.80
2018-03-20T18:02:15.015Z,0.70
2018-03-20T18:04:49.758Z,0.70
2018-03-20T18:07:25.481Z,0.60
2018-03-20T18:09:59.204Z,0.60
2018-03-20T18:12:34.427Z,0.60
2018-03-20T18:15:08.847Z,0.50
2018-03-20T18:17:43.387Z,0.50
2018-03-20T18:20:17.595Z,0.50
2018-03-20T18:22:52.313Z,0.50
2018-03-20T18:25:27.133Z,0.70
2018-03-20T18:28:01.268Z,0.70
2018-03-20T18:30:36.392Z,0.60
2018-03-20T18:33:11.421Z,0.60
2018-03-20T18:35:45.439Z,0.60
2018-03-20T18:38:19.451Z,0.70
2018-03-20T18:40:55.105Z,0.70
2018-03-20T18:43:28.975Z,0.70
2018-03-20T18:46:06.195Z,0.70
2018-03-20T18:48:40.734Z,0.70
2018-03-20T18:51:16.862Z,0.60
2018-03-20T18:53:51.897Z,0.70
2018-03-20T18:56:25.916Z,0.60
2018-03-20T18:58:59.659Z,0.70
2018-03-20T19:01:33.596Z,0.70
2018-03-20T19:04:07.739Z,0.60
2018-03-20T19:06:43.542Z,0.70
2018-03-20T19:09:17.778Z,0.70
2018-03-20T19:11:53.146Z,0.70
2018-03-20T19:14:28.332Z,0.80
2018-03-20T19:17:03.259Z,0.80
2018-03-20T19:19:37.620Z,0.80
2018-03-20T19:22:13.284Z,0.80
2018-03-20T19:24:49.336Z,0.80
2018-03-20T19:27:23.755Z,0.80
2018-03-20T19:29:58.251Z,0.80
2018-03-20T19:32:33.070Z,0.70
2018-03-20T19:35:09.168Z,0.70
2018-03-20T19:37:43.691Z,0.70
2018-03-20T19:40:17.539Z,0.70
2018-03-20T19:42:52.313Z,0.70
2018-03-20T19:45:26.012Z,0.70
2018-03-20T19:48:01.910Z,0.70
2018-03-20T19:50:37.527Z,0.80
2018-03-20T19:53:12.973Z,0.70
2018-03-20T19:55:47.186Z,0.70
2018-03-20T19:58:21.756Z,0.70
2018-03-20T20:00:56.432Z,0.80
2018-03-20T20:03:31.021Z,0.70
2018-03-20T20:06:06.373Z,0.70
2018-03-20T20:08:43.569Z,0.60
2018-03-20T20:11:19.020Z,0.60
2018-03-20T20:13:54.646Z,0.70
2018-03-20T20:16:29.897Z,0.80
2018-03-20T20:19:06.254Z,0.70
2018-03-20T20:21:40.286Z,0.70
2018-03-20T20:24:17.563Z,0.70
2018-03-20T20:26:52.403Z,0.70
2018-03-20T20:29:27.110Z,0.80
2018-03-20T20:32:02.682Z,0.80
2018-03-20T20:34:37.596Z,0.80
2018-03-20T20:37:12.839Z,0.70
2018-03-20T20:39:47.994Z,0.60
2018-03-20T20:42:22.034Z,0.50
2018-03-20T20:44:56.079Z,0.70
2018-03-20T20:47:34.903Z,0.60
2018-03-20T20:50:09.216Z,0.70
2018-03-20T20:52:45.680Z,0.60
2018-03-20T20:55:19.592Z,0.60
2018-03-20T20:57:56.327Z,0.60
2018-03-20T21:00:35.564Z,0.60
2018-03-20T21:03:11.355Z,0.60
2018-03-20T21:05:46.361Z,0.60
2018-03-20T21:08:21.271Z,0.70
2018-03-20T21:10:56.851Z,0.70
2018-03-20T21:13:30.749Z,0.70
2018-03-20T21:16:07.128Z,0.70
2018-03-20T21:18:42.781Z,0.60
2018-03-20T21:21:18.732Z,0.80
2018-03-20T21:23:57.671Z,0.80
2018-03-20T21:26:34.035Z,0.80
2018-03-20T21:29:08.251Z,0.70
2018-03-20T21:31:44.838Z,0.70
2018-03-20T21:34:19.736Z,0.70
2018-03-20T21:36:55.609Z,0.80
2018-03-20T21:39:29.506Z,0.90
2018-03-20T21:42:04.616Z,0.90
2018-03-20T21:44:39.353Z,0.90
2018-03-20T21:47:15.428Z,0.90
2018-03-20T21:49:50.357Z,0.80
2018-03-20T21:52:24.676Z,0.80
2018-03-20T21:55:00.730Z,0.90
2018-03-20T21:57:37.419Z,0.80
2018-03-20T22:00:11.877Z,0.80
2018-03-20T22:02:46.361Z,0.80
2018-03-20T22:05:20.460Z,0.80
2018-03-20T22:07:54.769Z,0.70
2018-03-20T22:10:28.866Z,0.70
2018-03-20T22:13:04.635Z,0.60
2018-03-20T22:15:39.142Z,0.50
2018-03-20T22:18:15.000Z,0.60
2018-03-20T22:20:49.805Z,0.60
2018-03-20T22:23:24.445Z,0.60
2018-03-20T22:25:59.686Z,0.60
2018-03-20T22:28:35.332Z,0.50
2018-03-20T22:31:09.340Z,0.50
2018-03-20T22:33:44.883Z,0.50
2018-03-20T22:36:18.902Z,0.60
2018-03-20T22:38:57.316Z,0.50
2018-03-20T22:41:32.844Z,0.70
2018-03-20T22:44:07.694Z,0.70
2018-03-20T22:46:41.821Z,0.60
2018-03-20T22:49:17.035Z,0.60
2018-03-20T22:51:51.152Z,0.60
2018-03-20T22:54:25.280Z,0.60
2018-03-20T22:56:59.892Z,0.60
2018-03-20T22:59:35.145Z,0.70
2018-03-20T23:02:09.851Z,0.70
2018-03-20T23:04:45.587Z,0.60
2018-03-20T23:07:19.404Z,0.60
2018-03-20T23:09:53.682Z,0.50
2018-03-20T23:12:27.603Z,0.60
2018-03-20T23:15:04.270Z,0.70
2018-03-20T23:17:38.787Z,0.60
2018-03-20T23:20:13.773Z,0.70
2018-03-20T23:22:47.656Z,0.70
2018-03-20T23:25:23.748Z,0.70
2018-03-20T23:27:57.829Z,0.70
2018-03-20T23:30:35.432Z,0.70
2018-03-20T23:33:10.047Z,0.60
2018-03-20T23:35:44.776Z,0.60
2018-03-20T23:38:18.691Z,0.70
2018-03-20T23:40:54.628Z,0.70
2018-03-20T23:43:28.860Z,0.70
2018-03-20T23:46:04.708Z,0.60
2018-03-20T23:48:39.118Z,0.60
2018-03-20T23:51:16.215Z,0.60
2018-03-20T23:53:50.228Z,0.60
2018-03-20T23:56:24.651Z,0.70
2018-03-20T23:58:58.844Z,0.80
